Time;durP1;ratioP1;P1;durP2;ratioP2;P2;SDS_P1;SDS_P2;PMS_P1;PMS_P2;Temp;Humidity;BMP_temperature;BMP_pressure;BME280_temperature;BME280_humidity;BME280_pressure;Samples;Min_cycle;Max_cycle;Signal;HPM_P1;HPM_P2
2021/12/07 00:00:44;;;;;;;33.20;16.80;;;;;;;;;;5034523;28;20413;-63
2021/12/07 00:03:10;;;;;;;30.80;17.80;;;;;;;;;;5034652;28;20412;-57
2021/12/07 00:05:36;;;;;;;33.37;18.23;;;;;;;;;;5034575;28;20413;-55
2021/12/07 00:08:02;;;;;;;35.30;17.60;;;;;;;;;;5034476;28;20400;-53
2021/12/07 00:10:28;;;;;;;33.87;17.90;;;;;;;;;;5034595;28;20412;-60
2021/12/07 00:12:54;;;;;;;31.73;17.17;;;;;;;;;;5034588;28;20770;-59
2021/12/07 00:15:23;;;;;;;31.23;16.67;;;;;;;;;;5034614;28;20424;-63
2021/12/07 00:17:49;;;;;;;30.50;17.10;;;;;;;;;;5034391;28;20400;-58
2021/12/07 00:20:16;;;;;;;32.03;17.30;;;;;;;;;;5034262;28;20456;-63
2021/12/07 00:22:43;;;;;;;31.83;17.53;;;;;;;;;;5034349;28;20404;-63
2021/12/07 00:25:10;;;;;;;32.23;17.23;;;;;;;;;;5034611;28;20884;-63
2021/12/07 00:27:36;;;;;;;36.17;18.23;;;;;;;;;;5034380;28;20404;-56
2021/12/07 00:30:07;;;;;;;31.53;17.27;;;;;;;;;;5034257;28;20412;-57
2021/12/07 00:32:37;;;;;;;34.43;17.30;;;;;;;;;;5034558;28;20874;-55
2021/12/07 00:37:52;;;;;;;37.80;18.27;;;;;;;;;;5034316;28;20399;-56
2021/12/07 00:40:18;;;;;;;32.47;17.07;;;;;;;;;;5034126;28;20413;-53
2021/12/07 00:42:46;;;;;;;30.67;18.00;;;;;;;;;;5034104;28;20408;-53
2021/12/07 00:45:15;;;;;;;34.37;17.67;;;;;;;;;;5033850;28;20503;-55
2021/12/07 00:47:41;;;;;;;36.23;17.80;;;;;;;;;;5033948;28;20409;-52
2021/12/07 00:50:08;;;;;;;35.77;17.90;;;;;;;;;;5033872;28;20404;-56
2021/12/07 00:52:34;;;;;;;33.80;17.53;;;;;;;;;;5033768;28;20416;-51
2021/12/07 00:55:00;;;;;;;34.60;18.67;;;;;;;;;;5033899;28;20468;-57
2021/12/07 00:57:26;;;;;;;37.77;19.00;;;;;;;;;;5033945;28;20905;-53
2021/12/07 00:59:52;;;;;;;39.33;19.20;;;;;;;;;;5033910;28;20766;-52
2021/12/07 01:02:19;;;;;;;41.30;19.50;;;;;;;;;;5033967;28;20751;-53
2021/12/07 01:04:51;;;;;;;39.13;18.90;;;;;;;;;;5032516;28;21412;-54
2021/12/07 01:07:47;;;;;;;40.53;19.77;;;;;;;;;;5033899;28;20420;-56
2021/12/07 01:26:32;;;;;;;38.40;18.87;;;;;;;;;;5033961;28;20396;-57
2021/12/07 01:28:58;;;;;;;40.70;19.10;;;;;;;;;;5065374;28;20432;-61
2021/12/07 01:31:35;;;;;;;41.03;19.77;;;;;;;;;;5033770;28;20897;-56
2021/12/07 01:36:50;;;;;;;35.97;19.10;;;;;;;;;;5033390;28;20427;-62
2021/12/07 01:57:46;;;;;;;35.67;17.90;;;;;;;;;;5033249;28;20416;-56
2021/12/07 02:01:26;;;;;;;37.37;19.87;;;;;;;;;;5033231;28;21027;-58
2021/12/07 02:03:52;;;;;;;37.53;19.17;;;;;;;;;;5032753;28;20400;-59
2021/12/07 02:06:18;;;;;;;35.63;18.60;;;;;;;;;;5033158;28;20413;-58
2021/12/07 02:08:44;;;;;;;36.80;18.80;;;;;;;;;;5032909;28;20405;-53
2021/12/07 02:11:10;;;;;;;40.20;18.83;;;;;;;;;;5032909;28;20897;-56
2021/12/07 02:16:03;;;;;;;37.73;18.60;;;;;;;;;;5033168;28;20746;-56
2021/12/07 02:18:29;;;;;;;39.73;19.17;;;;;;;;;;5032744;28;20502;-55
2021/12/07 02:20:55;;;;;;;34.53;18.63;;;;;;;;;;5032976;28;20424;-58
2021/12/07 02:23:21;;;;;;;40.17;19.67;;;;;;;;;;5032911;28;20462;-59
2021/12/07 02:25:47;;;;;;;36.90;18.40;;;;;;;;;;5032641;28;20405;-55
2021/12/07 02:28:15;;;;;;;41.03;18.87;;;;;;;;;;5032921;28;20419;-54
2021/12/07 02:30:42;;;;;;;38.13;18.50;;;;;;;;;;5032942;28;20478;-55
2021/12/07 02:33:09;;;;;;;35.90;18.80;;;;;;;;;;5032641;28;20471;-53
2021/12/07 02:35:36;;;;;;;35.37;18.40;;;;;;;;;;5032718;28;20432;-56
2021/12/07 02:38:02;;;;;;;34.73;17.90;;;;;;;;;;5032556;28;20408;-58
2021/12/07 02:40:28;;;;;;;36.23;18.57;;;;;;;;;;5033023;28;20467;-55
2021/12/07 02:42:54;;;;;;;35.80;17.97;;;;;;;;;;5032754;28;20766;-52
2021/12/07 02:45:22;;;;;;;34.60;18.10;;;;;;;;;;5032730;28;20416;-54
2021/12/07 02:47:48;;;;;;;36.30;18.20;;;;;;;;;;5032613;28;20417;-59
2021/12/07 02:50:15;;;;;;;34.87;18.43;;;;;;;;;;5032517;28;20424;-52
2021/12/07 02:52:41;;;;;;;30.20;16.03;;;;;;;;;;5032434;28;20405;-56
2021/12/07 02:55:07;;;;;;;38.60;18.30;;;;;;;;;;5032260;28;20558;-55
2021/12/07 02:57:34;;;;;;;31.20;17.50;;;;;;;;;;5064846;28;20412;-58
2021/12/07 03:00:08;;;;;;;33.17;17.10;;;;;;;;;;5032667;28;20412;-55
2021/12/07 03:02:41;;;;;;;34.10;17.50;;;;;;;;;;5032424;28;20413;-54
2021/12/07 03:05:19;;;;;;;38.37;18.20;;;;;;;;;;5032352;28;20466;-53
2021/12/07 03:08:07;;;;;;;33.50;17.10;;;;;;;;;;5032528;28;20408;-58
2021/12/07 03:26:59;;;;;;;33.10;18.00;;;;;;;;;;5035861;28;20754;-58
2021/12/07 03:29:25;;;;;;;36.97;17.00;;;;;;;;;;5035727;28;20400;-52
2021/12/07 03:31:51;;;;;;;32.43;18.27;;;;;;;;;;5035918;28;20400;-56
2021/12/07 03:34:17;;;;;;;38.07;17.97;;;;;;;;;;5035621;28;21110;-52
2021/12/07 03:36:43;;;;;;;33.13;17.60;;;;;;;;;;5035624;28;20407;-59
2021/12/07 03:39:09;;;;;;;31.10;16.57;;;;;;;;;;5035702;28;20413;-53
2021/12/07 03:41:35;;;;;;;35.67;17.93;;;;;;;;;;5067561;28;20507;-52
2021/12/07 03:44:02;;;;;;;31.77;16.30;;;;;;;;;;5035500;28;20417;-53
2021/12/07 03:46:28;;;;;;;33.33;17.37;;;;;;;;;;5035461;28;20416;-52
2021/12/07 03:48:54;;;;;;;35.13;18.00;;;;;;;;;;5035448;28;20417;-51
2021/12/07 03:51:20;;;;;;;32.73;16.93;;;;;;;;;;5067461;28;20427;-51
2021/12/07 03:53:46;;;;;;;36.87;17.57;;;;;;;;;;5035184;28;20805;-53
2021/12/07 03:56:13;;;;;;;31.77;17.17;;;;;;;;;;5035276;28;20500;-59
2021/12/07 03:58:40;;;;;;;32.80;17.40;;;;;;;;;;5035248;28;20420;-53
2021/12/07 04:01:07;;;;;;;31.57;17.47;;;;;;;;;;5035159;28;20413;-55
2021/12/07 04:03:35;;;;;;;31.57;16.93;;;;;;;;;;5034153;28;20818;-54
2021/12/07 04:06:05;;;;;;;31.47;16.70;;;;;;;;;;5035422;28;20417;-53
2021/12/07 04:08:31;;;;;;;35.77;17.97;;;;;;;;;;5035049;28;20798;-54
2021/12/07 04:10:58;;;;;;;33.50;18.17;;;;;;;;;;5034937;28;20405;-55
2021/12/07 04:13:24;;;;;;;34.80;17.20;;;;;;;;;;5035269;28;20460;-54
2021/12/07 04:15:50;;;;;;;33.43;17.50;;;;;;;;;;5035133;28;20466;-56
2021/12/07 04:18:16;;;;;;;32.97;18.13;;;;;;;;;;5034805;28;20441;-55
2021/12/07 04:20:42;;;;;;;31.57;17.70;;;;;;;;;;5034610;28;20464;-56
2021/12/07 04:23:08;;;;;;;33.30;16.37;;;;;;;;;;5034668;28;20409;-53
2021/12/07 04:25:35;;;;;;;29.73;15.93;;;;;;;;;;5034373;28;20755;-54
2021/12/07 04:28:01;;;;;;;28.00;15.77;;;;;;;;;;5066709;28;20447;-53
2021/12/07 04:30:31;;;;;;;33.67;16.37;;;;;;;;;;5066565;28;20800;-55
2021/12/07 04:32:57;;;;;;;28.80;16.40;;;;;;;;;;5066455;28;20734;-54
2021/12/07 04:35:24;;;;;;;29.53;15.93;;;;;;;;;;5034671;28;20468;-53
2021/12/07 04:37:51;;;;;;;28.90;16.20;;;;;;;;;;5034453;28;20481;-52
2021/12/07 04:40:18;;;;;;;25.50;14.90;;;;;;;;;;5034276;28;20909;-55
2021/12/07 04:42:45;;;;;;;26.97;15.50;;;;;;;;;;5034344;28;20916;-55
2021/12/07 04:45:20;;;;;;;31.13;15.17;;;;;;;;;;5034568;28;20409;-54
2021/12/07 04:48:01;;;;;;;27.03;14.73;;;;;;;;;;5034232;28;20467;-62
2021/12/07 04:58:41;;;;;;;33.40;16.60;;;;;;;;;;5033915;28;20395;-55
2021/12/07 05:01:10;;;;;;;29.17;16.67;;;;;;;;;;5034018;28;20409;-63
2021/12/07 05:03:37;;;;;;;30.53;16.17;;;;;;;;;;5034173;28;20455;-62
2021/12/07 05:06:06;;;;;;;32.03;16.87;;;;;;;;;;5034111;28;20401;-63
2021/12/07 05:08:57;;;;;;;30.37;16.50;;;;;;;;;;5032689;28;20439;-55
2021/12/07 05:14:15;;;;;;;27.03;15.73;;;;;;;;;;5034047;28;20455;-63
2021/12/07 05:25:28;;;;;;;26.73;14.27;;;;;;;;;;5032351;28;20920;-61
2021/12/07 05:38:50;;;;;;;26.63;14.17;;;;;;;;;;5032626;28;20404;-67
2021/12/07 05:41:16;;;;;;;26.13;14.53;;;;;;;;;;5033004;28;20413;-61
2021/12/07 05:43:42;;;;;;;27.87;15.40;;;;;;;;;;5033126;28;20413;-64
2021/12/07 05:46:08;;;;;;;27.03;14.67;;;;;;;;;;5033428;28;20417;-67
2021/12/07 05:48:34;;;;;;;32.43;15.30;;;;;;;;;;5033040;28;20901;-67
2021/12/07 05:51:01;;;;;;;33.13;14.83;;;;;;;;;;5033260;28;20428;-67
2021/12/07 05:53:27;;;;;;;27.10;14.47;;;;;;;;;;5033088;28;20464;-63
2021/12/07 05:55:53;;;;;;;22.83;14.10;;;;;;;;;;5033203;28;20447;-62
2021/12/07 05:58:19;;;;;;;22.30;13.67;;;;;;;;;;5032831;28;20401;-61
2021/12/07 06:00:46;;;;;;;28.03;15.60;;;;;;;;;;5065104;28;20452;-64
2021/12/07 06:03:13;;;;;;;26.43;14.80;;;;;;;;;;5032834;28;20435;-65
2021/12/07 06:05:40;;;;;;;29.00;14.43;;;;;;;;;;5064622;28;20421;-63
2021/12/07 06:08:06;;;;;;;26.63;14.40;;;;;;;;;;5033084;28;20573;-65
2021/12/07 06:10:33;;;;;;;33.00;15.00;;;;;;;;;;5031792;28;20416;-62
2021/12/07 06:12:59;;;;;;;27.40;14.33;;;;;;;;;;5032646;28;20415;-61
2021/12/07 06:15:27;;;;;;;22.73;13.37;;;;;;;;;;5032534;28;20485;-65
2021/12/07 06:17:53;;;;;;;24.43;13.93;;;;;;;;;;5032485;28;20463;-66
2021/12/07 06:20:20;;;;;;;27.97;14.40;;;;;;;;;;5032191;28;21056;-59
2021/12/07 06:22:46;;;;;;;23.67;14.00;;;;;;;;;;5032423;28;20427;-62
2021/12/07 06:25:12;;;;;;;28.03;13.90;;;;;;;;;;5032377;28;20499;-61
2021/12/07 06:27:38;;;;;;;26.73;14.13;;;;;;;;;;5032518;28;20409;-58
2021/12/07 06:30:05;;;;;;;27.77;14.30;;;;;;;;;;5032622;28;20412;-67
2021/12/07 06:32:31;;;;;;;28.77;14.97;;;;;;;;;;5032202;28;20405;-61
2021/12/07 06:34:57;;;;;;;25.50;14.10;;;;;;;;;;5031857;28;20472;-67
2021/12/07 06:37:23;;;;;;;23.97;14.80;;;;;;;;;;5032343;28;20495;-59
2021/12/07 06:39:49;;;;;;;32.57;17.47;;;;;;;;;;5032073;28;20511;-65
2021/12/07 06:42:15;;;;;;;34.80;17.07;;;;;;;;;;5039597;28;20551;-53
2021/12/07 06:44:41;;;;;;;30.47;14.87;;;;;;;;;;5051502;28;20422;-61
2021/12/07 06:47:07;;;;;;;30.23;15.70;;;;;;;;;;5051441;28;20400;-59
2021/12/07 06:49:33;;;;;;;27.47;15.40;;;;;;;;;;5053573;28;20991;-55
2021/12/07 06:51:59;;;;;;;29.73;15.63;;;;;;;;;;5056067;28;20501;-56
2021/12/07 06:54:26;;;;;;;28.00;15.07;;;;;;;;;;5056218;28;20474;-58
2021/12/07 06:56:53;;;;;;;27.30;14.60;;;;;;;;;;5056329;28;20521;-59
2021/12/07 06:59:19;;;;;;;30.40;16.00;;;;;;;;;;5056071;28;20447;-59
2021/12/07 07:01:45;;;;;;;24.97;14.77;;;;;;;;;;5055899;28;20446;-56
2021/12/07 07:04:12;;;;;;;28.47;14.90;;;;;;;;;;5055919;28;20418;-59
2021/12/07 07:06:38;;;;;;;26.70;14.23;;;;;;;;;;5056174;28;20781;-57
2021/12/07 07:09:05;;;;;;;29.53;14.30;;;;;;;;;;5055945;28;20408;-58
2021/12/07 07:11:31;;;;;;;26.80;13.37;;;;;;;;;;5055814;28;20438;-54
2021/12/07 07:13:58;;;;;;;25.03;14.37;;;;;;;;;;5055707;28;20463;-56
2021/12/07 07:16:24;;;;;;;27.30;15.40;;;;;;;;;;5056178;28;20434;-58
2021/12/07 07:18:50;;;;;;;26.70;15.30;;;;;;;;;;5055724;28;20490;-62
2021/12/07 07:21:16;;;;;;;27.13;14.53;;;;;;;;;;5055483;28;20473;-56
2021/12/07 07:23:42;;;;;;;29.17;16.10;;;;;;;;;;5055587;28;20403;-56
2021/12/07 07:26:08;;;;;;;25.23;14.57;;;;;;;;;;5055571;28;20775;-57
2021/12/07 07:28:34;;;;;;;30.73;15.63;;;;;;;;;;5055558;28;20407;-56
2021/12/07 07:31:03;;;;;;;36.43;15.27;;;;;;;;;;5055849;28;20467;-57
2021/12/07 07:33:29;;;;;;;35.53;15.37;;;;;;;;;;5055481;28;20404;-56
2021/12/07 07:35:55;;;;;;;29.53;14.33;;;;;;;;;;5054085;28;20411;-55
2021/12/07 07:38:21;;;;;;;31.60;16.03;;;;;;;;;;5055323;28;20753;-56
2021/12/07 07:40:48;;;;;;;28.53;15.17;;;;;;;;;;5055264;28;20438;-57
2021/12/07 07:43:16;;;;;;;27.87;15.83;;;;;;;;;;5055097;28;20446;-57
2021/12/07 07:45:42;;;;;;;29.67;15.30;;;;;;;;;;5055471;28;20412;-58
2021/12/07 07:48:08;;;;;;;26.63;14.70;;;;;;;;;;5055074;28;20408;-57
2021/12/07 07:50:34;;;;;;;33.10;17.37;;;;;;;;;;5054970;28;20415;-55
2021/12/07 07:53:00;;;;;;;32.50;16.13;;;;;;;;;;5055032;28;20407;-57
2021/12/07 07:55:26;;;;;;;29.27;15.90;;;;;;;;;;5053431;28;20474;-55
2021/12/07 07:57:52;;;;;;;32.60;17.07;;;;;;;;;;5055051;28;20780;-55
2021/12/07 08:00:18;;;;;;;30.53;15.27;;;;;;;;;;5054223;28;20399;-58
2021/12/07 08:02:45;;;;;;;30.23;15.87;;;;;;;;;;5053166;28;20510;-56
2021/12/07 08:05:11;;;;;;;28.73;16.07;;;;;;;;;;5055026;28;20502;-55
2021/12/07 08:07:37;;;;;;;29.93;16.23;;;;;;;;;;5054745;28;20772;-55
2021/12/07 08:10:06;;;;;;;29.97;15.20;;;;;;;;;;5054589;28;20404;-56
2021/12/07 08:12:32;;;;;;;29.03;15.87;;;;;;;;;;5054598;28;20408;-56
2021/12/07 08:14:58;;;;;;;31.20;16.63;;;;;;;;;;5053300;28;21089;-58
2021/12/07 08:17:23;;;;;;;29.13;16.17;;;;;;;;;;5058909;28;20407;-55
2021/12/07 08:19:50;;;;;;;29.70;15.50;;;;;;;;;;5055599;28;20482;-55
2021/12/07 08:22:16;;;;;;;32.53;16.67;;;;;;;;;;5051878;28;20427;-55
2021/12/07 08:24:42;;;;;;;31.23;17.03;;;;;;;;;;5052428;28;20408;-54
2021/12/07 08:27:07;;;;;;;30.40;16.63;;;;;;;;;;5051749;28;20403;-53
2021/12/07 08:29:33;;;;;;;27.47;15.37;;;;;;;;;;5051215;28;20492;-54
2021/12/07 08:32:00;;;;;;;32.03;17.20;;;;;;;;;;5051755;28;20415;-52
2021/12/07 08:34:26;;;;;;;31.97;16.90;;;;;;;;;;5051741;28;20467;-53
2021/12/07 08:36:51;;;;;;;31.90;16.10;;;;;;;;;;5051800;28;20422;-53
2021/12/07 08:39:19;;;;;;;29.40;16.57;;;;;;;;;;5051403;28;20415;-52
2021/12/07 08:41:45;;;;;;;29.90;16.80;;;;;;;;;;5050943;28;20407;-57
2021/12/07 08:44:11;;;;;;;27.67;16.33;;;;;;;;;;5051715;28;20412;-56
2021/12/07 08:46:38;;;;;;;27.50;15.90;;;;;;;;;;5050248;28;20411;-53
2021/12/07 08:49:04;;;;;;;32.03;16.20;;;;;;;;;;5053515;28;20414;-54
2021/12/07 08:51:30;;;;;;;30.93;17.63;;;;;;;;;;5053084;28;20407;-54
2021/12/07 08:54:07;;;;;;;29.73;17.00;;;;;;;;;;5050847;28;20455;-55
2021/12/07 08:59:39;;;;;;;27.97;16.80;;;;;;;;;;5050783;28;20457;-52
2021/12/07 09:02:05;;;;;;;29.80;17.50;;;;;;;;;;5050125;28;20408;-54
2021/12/07 09:04:31;;;;;;;30.27;17.57;;;;;;;;;;5051175;28;20422;-55
2021/12/07 09:06:57;;;;;;;29.70;17.20;;;;;;;;;;5050702;28;20408;-56
2021/12/07 09:09:23;;;;;;;27.47;16.10;;;;;;;;;;5050930;28;20908;-55
2021/12/07 09:11:49;;;;;;;33.37;18.63;;;;;;;;;;5050818;28;20739;-53
2021/12/07 09:14:18;;;;;;;29.07;16.90;;;;;;;;;;5049842;28;21035;-53
2021/12/07 09:16:45;;;;;;;29.00;16.57;;;;;;;;;;5051451;28;20412;-55
2021/12/07 09:19:11;;;;;;;33.60;17.90;;;;;;;;;;5050139;28;20451;-54
2021/12/07 09:21:37;;;;;;;28.20;17.17;;;;;;;;;;5050421;28;20792;-52
2021/12/07 09:24:03;;;;;;;33.13;17.90;;;;;;;;;;5051872;28;20473;-54
2021/12/07 09:26:29;;;;;;;30.47;16.93;;;;;;;;;;5050090;28;20407;-55
2021/12/07 09:28:56;;;;;;;31.47;16.47;;;;;;;;;;5050721;28;20450;-57
2021/12/07 09:31:22;;;;;;;28.57;16.50;;;;;;;;;;5049837;28;20743;-54
2021/12/07 09:33:49;;;;;;;31.13;16.80;;;;;;;;;;5050109;28;20463;-54
2021/12/07 09:36:15;;;;;;;28.77;16.70;;;;;;;;;;5050177;28;20415;-55
2021/12/07 09:38:41;;;;;;;29.30;16.90;;;;;;;;;;5050554;28;20796;-54
2021/12/07 09:41:08;;;;;;;27.53;15.83;;;;;;;;;;5050195;28;20408;-56
2021/12/07 09:43:36;;;;;;;26.83;15.87;;;;;;;;;;5048970;28;20421;-54
2021/12/07 09:46:02;;;;;;;26.27;15.70;;;;;;;;;;5050169;28;20462;-53
2021/12/07 09:48:28;;;;;;;26.30;15.47;;;;;;;;;;5050290;28;20416;-54
2021/12/07 09:50:54;;;;;;;27.83;16.27;;;;;;;;;;5050441;28;20430;-56
2021/12/07 09:53:21;;;;;;;28.13;15.43;;;;;;;;;;5049712;28;20419;-56
2021/12/07 09:55:48;;;;;;;28.80;16.63;;;;;;;;;;5049663;28;20897;-56
2021/12/07 09:58:14;;;;;;;27.90;16.27;;;;;;;;;;5049495;28;20419;-53
2021/12/07 10:00:41;;;;;;;27.10;15.97;;;;;;;;;;5050298;28;20495;-53
2021/12/07 10:03:07;;;;;;;27.53;15.60;;;;;;;;;;5049857;28;20402;-53
2021/12/07 10:05:35;;;;;;;29.70;15.80;;;;;;;;;;5049771;28;20408;-53
2021/12/07 10:08:01;;;;;;;28.23;17.00;;;;;;;;;;5050849;28;20930;-54
2021/12/07 10:10:29;;;;;;;30.40;16.83;;;;;;;;;;5050017;28;20504;-55
2021/12/07 10:12:55;;;;;;;30.50;16.07;;;;;;;;;;5050276;28;20857;-55
2021/12/07 10:15:22;;;;;;;29.10;16.50;;;;;;;;;;5049228;28;20947;-56
2021/12/07 10:18:06;;;;;;;27.13;15.40;;;;;;;;;;5049678;28;20415;-54
2021/12/07 10:20:39;;;;;;;26.77;16.20;;;;;;;;;;5050183;28;20470;-57
2021/12/07 10:23:14;;;;;;;26.87;16.07;;;;;;;;;;5051704;28;20415;-57
2021/12/07 10:25:41;;;;;;;29.60;16.57;;;;;;;;;;5051472;28;20438;-57
2021/12/07 10:28:25;;;;;;;27.60;16.80;;;;;;;;;;5051881;28;20446;-56
2021/12/07 10:30:52;;;;;;;27.33;16.60;;;;;;;;;;5051911;28;20419;-56
2021/12/07 10:33:28;;;;;;;27.33;16.17;;;;;;;;;;5051438;28;20440;-55
2021/12/07 10:36:05;;;;;;;25.40;16.10;;;;;;;;;;5051880;28;20480;-56
2021/12/07 10:38:31;;;;;;;28.73;16.40;;;;;;;;;;5051638;28;20784;-55
2021/12/07 10:41:02;;;;;;;27.90;17.03;;;;;;;;;;5051687;28;20407;-54
2021/12/07 10:43:43;;;;;;;27.90;17.00;;;;;;;;;;5051913;28;20408;-57
2021/12/07 10:46:29;;;;;;;27.30;15.80;;;;;;;;;;5051451;28;20498;-57
2021/12/07 10:49:14;;;;;;;26.80;15.87;;;;;;;;;;5051283;28;20755;-54
2021/12/07 10:51:40;;;;;;;27.97;17.60;;;;;;;;;;5051364;28;20804;-56
2021/12/07 10:54:07;;;;;;;22.67;14.73;;;;;;;;;;5051145;28;20533;-54
2021/12/07 10:56:34;;;;;;;26.87;15.97;;;;;;;;;;5051717;28;20434;-56
2021/12/07 10:59:04;;;;;;;25.10;15.63;;;;;;;;;;5051324;28;20416;-56
2021/12/07 11:01:31;;;;;;;24.37;14.60;;;;;;;;;;5050197;28;20416;-57
2021/12/07 11:04:17;;;;;;;24.80;15.60;;;;;;;;;;5051387;28;20466;-55
2021/12/07 11:07:01;;;;;;;24.80;15.70;;;;;;;;;;5051406;28;20498;-57
2021/12/07 11:09:27;;;;;;;27.73;15.20;;;;;;;;;;5051517;28;20964;-57
2021/12/07 11:12:23;;;;;;;23.23;14.80;;;;;;;;;;5050465;28;20550;-57
2021/12/07 11:14:53;;;;;;;21.90;14.67;;;;;;;;;;5042586;28;20505;-56
2021/12/07 11:17:22;;;;;;;24.70;15.57;;;;;;;;;;5051069;28;20483;-54
2021/12/07 11:19:48;;;;;;;20.37;14.53;;;;;;;;;;5051289;28;20505;-55
2021/12/07 11:22:18;;;;;;;23.97;15.80;;;;;;;;;;5051315;28;20487;-54
2021/12/07 11:24:44;;;;;;;25.40;15.17;;;;;;;;;;5064592;28;20419;-54
2021/12/07 11:30:01;;;;;;;21.30;14.03;;;;;;;;;;5051719;28;20418;-56
2021/12/07 11:32:28;;;;;;;23.30;14.70;;;;;;;;;;5051434;28;20408;-55
2021/12/07 11:34:54;;;;;;;27.93;13.83;;;;;;;;;;5050947;28;20463;-55
2021/12/07 11:37:22;;;;;;;20.13;13.93;;;;;;;;;;5054116;28;20404;-56
2021/12/07 11:39:53;;;;;;;21.90;14.47;;;;;;;;;;5054781;28;20769;-55
2021/12/07 11:42:24;;;;;;;17.40;12.63;;;;;;;;;;5054958;28;20453;-55
2021/12/07 11:44:54;;;;;;;19.40;13.50;;;;;;;;;;5054644;28;20411;-57
2021/12/07 11:47:28;;;;;;;20.57;14.00;;;;;;;;;;5054793;28;20400;-60
2021/12/07 11:49:54;;;;;;;20.60;13.97;;;;;;;;;;5054814;28;20415;-57
2021/12/07 11:52:21;;;;;;;26.30;15.03;;;;;;;;;;5054747;28;20457;-53
2021/12/07 11:54:47;;;;;;;18.13;12.77;;;;;;;;;;5054373;28;20467;-55
2021/12/07 11:57:15;;;;;;;21.40;14.00;;;;;;;;;;5054476;28;20407;-57
2021/12/07 11:59:42;;;;;;;19.13;13.00;;;;;;;;;;5054585;28;20431;-59
2021/12/07 12:02:08;;;;;;;15.70;11.90;;;;;;;;;;5054416;28;20465;-63
2021/12/07 12:04:34;;;;;;;16.80;12.50;;;;;;;;;;5054444;28;20412;-56
2021/12/07 12:07:01;;;;;;;17.53;12.80;;;;;;;;;;5053278;28;20505;-60
2021/12/07 12:09:27;;;;;;;18.30;12.77;;;;;;;;;;5054346;28;20779;-61
2021/12/07 12:12:12;;;;;;;17.33;13.03;;;;;;;;;;5054748;28;20411;-57
2021/12/07 12:15:07;;;;;;;17.23;12.70;;;;;;;;;;5054126;28;20475;-62
2021/12/07 12:17:36;;;;;;;18.83;12.50;;;;;;;;;;4983223;28;20465;-61
2021/12/07 12:20:09;;;;;;;14.87;11.47;;;;;;;;;;5053867;28;20455;-59
2021/12/07 12:22:54;;;;;;;17.83;12.00;;;;;;;;;;5054358;28;20871;-60
2021/12/07 12:25:22;;;;;;;16.40;11.37;;;;;;;;;;5071215;28;20441;-59
2021/12/07 12:27:49;;;;;;;13.93;10.70;;;;;;;;;;5052584;28;20420;-57
2021/12/07 12:30:44;;;;;;;17.00;11.33;;;;;;;;;;5052780;28;20411;-59
2021/12/07 12:33:12;;;;;;;15.37;11.20;;;;;;;;;;5036937;28;20431;-57
2021/12/07 12:35:41;;;;;;;15.50;10.83;;;;;;;;;;5053740;28;21033;-57
2021/12/07 12:38:19;;;;;;;13.90;10.80;;;;;;;;;;5053558;28;20412;-53
2021/12/07 12:40:53;;;;;;;14.30;10.60;;;;;;;;;;5053336;28;20425;-56
2021/12/07 12:43:32;;;;;;;13.57;10.53;;;;;;;;;;5053282;28;20404;-56
2021/12/07 12:46:01;;;;;;;14.37;11.23;;;;;;;;;;5052316;28;20443;-55
2021/12/07 12:48:28;;;;;;;17.33;10.50;;;;;;;;;;5053289;28;20549;-55
2021/12/07 12:50:54;;;;;;;15.70;11.30;;;;;;;;;;5053792;28;20428;-60
2021/12/07 12:53:22;;;;;;;14.40;11.40;;;;;;;;;;5053807;28;20415;-59
2021/12/07 12:55:48;;;;;;;15.30;10.87;;;;;;;;;;5053204;28;20426;-56
2021/12/07 12:58:14;;;;;;;29.60;10.90;;;;;;;;;;5053152;28;20407;-59
2021/12/07 13:01:00;;;;;;;16.20;10.87;;;;;;;;;;5053219;28;20410;-55
2021/12/07 13:03:38;;;;;;;14.00;10.60;;;;;;;;;;5053061;28;20411;-58
2021/12/07 13:06:04;;;;;;;16.47;11.50;;;;;;;;;;5051854;28;20925;-57
2021/12/07 13:08:30;;;;;;;17.40;10.77;;;;;;;;;;5053080;28;20477;-54
2021/12/07 13:11:01;;;;;;;17.03;11.90;;;;;;;;;;5052741;28;20412;-56
2021/12/07 13:13:31;;;;;;;19.03;11.13;;;;;;;;;;5052664;28;20419;-57
2021/12/07 13:15:57;;;;;;;13.53;10.73;;;;;;;;;;5050763;28;20455;-56
2021/12/07 13:18:31;;;;;;;18.50;11.10;;;;;;;;;;5052722;28;20438;-55
2021/12/07 13:20:57;;;;;;;15.00;11.00;;;;;;;;;;5052946;28;20481;-58
2021/12/07 13:23:32;;;;;;;18.83;11.10;;;;;;;;;;5056434;28;20883;-55
2021/12/07 13:25:58;;;;;;;20.40;12.00;;;;;;;;;;5064735;28;20407;-58
2021/12/07 13:28:25;;;;;;;14.60;10.50;;;;;;;;;;5051537;28;20983;-55
2021/12/07 13:30:52;;;;;;;21.93;11.83;;;;;;;;;;5052575;28;20490;-56
2021/12/07 13:33:31;;;;;;;15.80;11.20;;;;;;;;;;5052507;28;20420;-57
2021/12/07 13:35:58;;;;;;;14.50;10.70;;;;;;;;;;5051982;28;20927;-54
2021/12/07 13:38:26;;;;;;;13.83;10.87;;;;;;;;;;5052408;28;20399;-57
2021/12/07 13:41:10;;;;;;;13.70;10.30;;;;;;;;;;5052429;28;20422;-55
2021/12/07 13:43:37;;;;;;;13.07;10.27;;;;;;;;;;5052089;28;20404;-56
2021/12/07 13:46:23;;;;;;;14.47;11.07;;;;;;;;;;5052324;28;20449;-57
2021/12/07 13:48:51;;;;;;;16.13;10.83;;;;;;;;;;5052250;28;20904;-58
2021/12/07 13:51:19;;;;;;;13.77;10.60;;;;;;;;;;5052108;28;20462;-54
2021/12/07 13:53:45;;;;;;;13.40;10.30;;;;;;;;;;5052079;28;20545;-59
2021/12/07 13:56:12;;;;;;;13.00;9.93;;;;;;;;;;5052249;28;20427;-62
2021/12/07 13:58:49;;;;;;;13.27;10.60;;;;;;;;;;5051404;28;20404;-59
2021/12/07 14:01:15;;;;;;;14.33;10.03;;;;;;;;;;5052251;28;20424;-61
2021/12/07 14:03:43;;;;;;;13.73;10.57;;;;;;;;;;5051957;28;20455;-57
2021/12/07 14:06:09;;;;;;;16.17;10.60;;;;;;;;;;5052173;28;20443;-58
2021/12/07 14:08:35;;;;;;;13.07;10.20;;;;;;;;;;5051935;28;20441;-57
2021/12/07 14:11:01;;;;;;;14.03;11.00;;;;;;;;;;5051959;28;20408;-56
2021/12/07 14:13:26;;;;;;;13.50;10.33;;;;;;;;;;5051403;28;20796;-56
2021/12/07 14:15:53;;;;;;;14.60;10.60;;;;;;;;;;5052071;28;20406;-55
2021/12/07 14:18:23;;;;;;;18.53;9.97;;;;;;;;;;5052042;28;20410;-55
2021/12/07 14:20:55;;;;;;;13.60;10.80;;;;;;;;;;5051583;28;20454;-53
2021/12/07 14:23:25;;;;;;;15.07;10.37;;;;;;;;;;5055649;28;20399;-56
2021/12/07 14:25:55;;;;;;;13.90;10.57;;;;;;;;;;5064723;28;20406;-56
2021/12/07 14:28:25;;;;;;;14.53;11.30;;;;;;;;;;5050540;28;20404;-56
2021/12/07 14:30:51;;;;;;;17.77;11.53;;;;;;;;;;5051774;28;20742;-57
2021/12/07 14:33:17;;;;;;;17.10;11.60;;;;;;;;;;5051624;28;20904;-57
2021/12/07 14:35:43;;;;;;;18.87;10.37;;;;;;;;;;5050166;28;20507;-58
2021/12/07 14:38:09;;;;;;;14.00;10.70;;;;;;;;;;5051637;28;20404;-56
2021/12/07 14:40:35;;;;;;;13.07;9.87;;;;;;;;;;5051526;28;20965;-52
2021/12/07 14:43:01;;;;;;;15.07;11.00;;;;;;;;;;5051376;28;20486;-57
2021/12/07 14:45:27;;;;;;;15.17;10.57;;;;;;;;;;5051376;28;20414;-55
2021/12/07 14:47:58;;;;;;;13.70;9.37;;;;;;;;;;5051824;28;20407;-55
2021/12/07 14:50:24;;;;;;;12.10;9.77;;;;;;;;;;5050940;28;20492;-55
2021/12/07 14:52:50;;;;;;;32.20;16.83;;;;;;;;;;5051907;28;20411;-56
2021/12/07 14:55:17;;;;;;;15.30;11.50;;;;;;;;;;5051296;28;20482;-56
2021/12/07 14:57:43;;;;;;;11.60;9.93;;;;;;;;;;5051414;28;20450;-53
2021/12/07 15:00:09;;;;;;;16.10;10.70;;;;;;;;;;5051548;28;20486;-54
2021/12/07 15:02:36;;;;;;;12.53;9.80;;;;;;;;;;5051551;28;20407;-53
2021/12/07 15:05:05;;;;;;;12.97;9.97;;;;;;;;;;5051601;28;20416;-53
2021/12/07 15:07:32;;;;;;;15.20;10.77;;;;;;;;;;5051398;28;20404;-55
2021/12/07 15:10:04;;;;;;;14.33;10.63;;;;;;;;;;5052465;28;20411;-55
2021/12/07 15:12:34;;;;;;;15.33;11.10;;;;;;;;;;5054293;28;20748;-56
2021/12/07 15:15:01;;;;;;;13.97;10.37;;;;;;;;;;5055132;28;20459;-56
2021/12/07 15:17:28;;;;;;;18.07;10.20;;;;;;;;;;5055191;28;20407;-58
2021/12/07 15:19:54;;;;;;;13.27;9.70;;;;;;;;;;5055214;28;20475;-59
2021/12/07 15:22:22;;;;;;;13.33;9.70;;;;;;;;;;5055316;28;20411;-58
2021/12/07 15:24:48;;;;;;;15.60;11.43;;;;;;;;;;5070420;28;20506;-55
2021/12/07 15:27:14;;;;;;;13.93;10.30;;;;;;;;;;5056367;28;20502;-56
2021/12/07 15:29:40;;;;;;;13.77;10.90;;;;;;;;;;5054975;28;20502;-60
2021/12/07 15:32:11;;;;;;;19.60;11.57;;;;;;;;;;5054817;28;20414;-56
2021/12/07 15:34:39;;;;;;;14.73;9.97;;;;;;;;;;5054992;28;20471;-55
2021/12/07 15:37:10;;;;;;;14.50;10.43;;;;;;;;;;5055211;28;20462;-56
2021/12/07 15:39:37;;;;;;;13.63;9.90;;;;;;;;;;5054905;28;20395;-57
2021/12/07 15:42:08;;;;;;;14.93;11.00;;;;;;;;;;5054721;28;20408;-53
2021/12/07 15:44:37;;;;;;;10.07;8.97;;;;;;;;;;5053447;28;20443;-57
2021/12/07 15:47:11;;;;;;;16.23;9.70;;;;;;;;;;5054653;28;20404;-58
2021/12/07 15:49:39;;;;;;;12.70;10.43;;;;;;;;;;5054442;28;20414;-55
2021/12/07 15:52:08;;;;;;;13.03;10.20;;;;;;;;;;5054365;28;20486;-53
2021/12/07 15:54:35;;;;;;;12.90;10.27;;;;;;;;;;5054468;28;20447;-56
2021/12/07 15:57:03;;;;;;;13.70;10.23;;;;;;;;;;5054766;28;20419;-54
2021/12/07 15:59:30;;;;;;;18.00;10.30;;;;;;;;;;5054470;28;20396;-56
2021/12/07 16:01:57;;;;;;;11.97;9.80;;;;;;;;;;5054285;28;20415;-58